createdAt,value
2018-12-17T00:00:37.881Z,80.20
2018-12-17T00:03:06.229Z,80.20
2018-12-17T00:05:34.486Z,80.50
2018-12-17T00:08:02.742Z,80.30
2018-12-17T00:10:32.300Z,80.20
2018-12-17T00:13:00.531Z,79.50
2018-12-17T00:15:28.793Z,79.40
2018-12-17T00:17:57.108Z,79.60
2018-12-17T00:20:25.344Z,79.90
2018-12-17T00:22:58.180Z,80.30
2018-12-17T00:25:26.425Z,79.60
2018-12-17T00:27:56.738Z,79.40
2018-12-17T00:30:25.835Z,79.00
2018-12-17T00:32:54.100Z,79.00
2018-12-17T00:35:22.210Z,79.40
2018-12-17T00:38:00.648Z,78.10
2018-12-17T00:40:28.958Z,78.40
2018-12-17T00:42:57.062Z,78.80
2018-12-17T00:45:25.357Z,79.10
2018-12-17T00:47:54.456Z,78.40
2018-12-17T00:50:22.696Z,77.70
2018-12-17T00:52:51.425Z,78.70
2018-12-17T00:55:19.659Z,79.10
2018-12-17T00:57:47.960Z,78.70
2018-12-17T01:00:16.246Z,78.80
2018-12-17T01:02:44.482Z,78.70
2018-12-17T01:05:12.767Z,78.40
2018-12-17T01:07:41.500Z,78.30
2018-12-17T01:10:09.748Z,78.30
2018-12-17T01:12:38.004Z,77.60
2018-12-17T01:15:06.401Z,77.80
2018-12-17T01:17:35.859Z,77.40
2018-12-17T01:20:05.153Z,77.70
2018-12-17T01:22:34.032Z,77.40
2018-12-17T01:25:02.256Z,77.00
2018-12-17T01:27:31.358Z,76.40
2018-12-17T01:30:05.398Z,76.60
2018-12-17T01:32:33.655Z,77.30
2018-12-17T01:35:01.911Z,77.10
2018-12-17T01:37:30.345Z,77.20
2018-12-17T01:39:58.880Z,76.90
2018-12-17T01:42:27.155Z,76.70
2018-12-17T01:44:55.894Z,77.40
2018-12-17T01:47:24.114Z,77.50
2018-12-17T01:49:52.387Z,78.10
2018-12-17T01:52:21.127Z,78.60
2018-12-17T01:54:49.363Z,79.30
2018-12-17T01:57:20.951Z,80.00
2018-12-17T01:59:49.178Z,80.90
2018-12-17T02:02:17.464Z,82.00
2018-12-17T02:04:46.180Z,83.30
2018-12-17T02:07:18.537Z,83.80
2018-12-17T02:09:46.834Z,83.90
2018-12-17T02:12:15.081Z,84.10
2018-12-17T02:14:43.350Z,84.60
2018-12-17T02:17:11.655Z,85.00
2018-12-17T02:19:39.902Z,84.70
2018-12-17T02:22:08.182Z,85.00
2018-12-17T02:24:36.783Z,85.00
2018-12-17T02:27:05.136Z,85.40
2018-12-17T02:29:33.425Z,86.60
2018-12-17T02:32:01.730Z,86.30
2018-12-17T02:34:29.982Z,86.60
2018-12-17T02:36:58.242Z,86.80
2018-12-17T02:39:26.835Z,87.00
2018-12-17T02:41:58.899Z,87.40
2018-12-17T02:44:28.063Z,87.30
2018-12-17T02:46:56.270Z,87.60
2018-12-17T02:49:24.745Z,87.80
2018-12-17T02:51:54.090Z,87.80
2018-12-17T02:54:23.143Z,87.60
2018-12-17T02:56:51.416Z,87.60
2018-12-17T02:59:23.008Z,87.50
2018-12-17T03:01:51.247Z,88.10
2018-12-17T03:04:19.532Z,88.50
2018-12-17T03:06:48.032Z,88.80
2018-12-17T03:09:18.133Z,89.20
2018-12-17T03:11:46.401Z,89.30
2018-12-17T03:14:15.129Z,89.70
2018-12-17T03:16:43.374Z,90.00
2018-12-17T03:19:11.641Z,90.30
2018-12-17T03:21:43.229Z,90.40
2018-12-17T03:24:11.474Z,90.50
2018-12-17T03:26:40.567Z,90.40
2018-12-17T03:29:09.262Z,90.40
2018-12-17T03:31:37.619Z,90.50
2018-12-17T03:34:05.808Z,90.50
2018-12-17T03:36:34.156Z,90.50
2018-12-17T03:39:06.140Z,90.50
2018-12-17T03:41:34.377Z,90.30
2018-12-17T03:44:02.621Z,90.50
2018-12-17T03:46:30.875Z,90.60
2018-12-17T03:48:59.620Z,90.90
2018-12-17T03:51:27.856Z,90.90
2018-12-17T03:53:56.114Z,91.00
2018-12-17T03:56:24.841Z,91.00
2018-12-17T03:58:59.188Z,91.10
2018-12-17T04:01:23.482Z,91.10
2018-12-17T04:03:51.714Z,91.20
2018-12-17T04:06:19.964Z,91.00
2018-12-17T04:08:48.232Z,91.10
2018-12-17T04:11:16.980Z,91.20
2018-12-17T04:13:47.237Z,91.30
2018-12-17T04:16:15.525Z,91.20
2018-12-17T04:18:44.259Z,91.10
2018-12-17T04:21:12.479Z,91.20
2018-12-17T04:23:40.763Z,91.20
2018-12-17T04:26:09.088Z,91.10
2018-12-17T04:28:37.627Z,91.00
2018-12-17T04:31:06.005Z,90.70
2018-12-17T04:33:34.820Z,90.80
2018-12-17T04:36:02.964Z,90.70
2018-12-17T04:38:31.248Z,90.60
2018-12-17T04:40:59.965Z,90.50
2018-12-17T04:43:28.213Z,90.40
2018-12-17T04:45:56.481Z,90.30
2018-12-17T04:48:24.814Z,90.40
2018-12-17T04:50:53.026Z,90.40
2018-12-17T04:53:21.300Z,90.50
2018-12-17T04:55:49.715Z,90.40
2018-12-17T04:58:17.859Z,90.60
2018-12-17T05:00:46.137Z,90.00
2018-12-17T05:03:15.460Z,89.70
2018-12-17T05:05:43.573Z,89.60
2018-12-17T05:08:11.794Z,89.60
2018-12-17T05:10:40.922Z,89.30
2018-12-17T05:13:09.156Z,89.00
2018-12-17T05:15:37.478Z,88.50
2018-12-17T05:18:05.751Z,88.50
2018-12-17T05:20:33.986Z,88.10
2018-12-17T05:23:02.282Z,88.00
2018-12-17T05:25:31.813Z,88.00
2018-12-17T05:28:00.048Z,87.90
2018-12-17T05:30:28.318Z,89.00
2018-12-17T05:32:56.634Z,88.30
2018-12-17T05:35:24.883Z,88.50
2018-12-17T05:37:59.125Z,88.60
2018-12-17T05:40:27.294Z,87.80
2018-12-17T05:42:55.458Z,88.00
2018-12-17T05:45:23.752Z,88.20
2018-12-17T05:47:55.692Z,88.10
2018-12-17T05:50:24.002Z,88.10
2018-12-17T05:52:52.234Z,87.80
2018-12-17T05:55:20.516Z,87.70
2018-12-17T05:57:48.829Z,87.00
2018-12-17T06:00:17.881Z,87.10
2018-12-17T06:02:46.161Z,87.60
2018-12-17T06:05:14.487Z,86.80
2018-12-17T06:07:42.711Z,86.60
2018-12-17T06:10:10.990Z,86.80
2018-12-17T06:12:39.296Z,86.90
2018-12-17T06:15:07.547Z,87.20
2018-12-17T06:17:35.822Z,87.10
2018-12-17T06:20:05.198Z,87.50
2018-12-17T06:22:33.597Z,87.70
2018-12-17T06:25:01.879Z,87.70
2018-12-17T06:27:36.596Z,87.30
2018-12-17T06:30:01.303Z,88.00
2018-12-17T06:32:29.567Z,88.40
2018-12-17T06:34:57.885Z,88.60
2018-12-17T06:37:25.981Z,90.00
2018-12-17T06:39:54.406Z,89.30
2018-12-17T06:42:22.717Z,89.90
2018-12-17T06:44:53.011Z,90.10
2018-12-17T06:47:21.273Z,90.10
2018-12-17T06:49:50.412Z,90.10
2018-12-17T06:52:19.469Z,90.00
2018-12-17T06:54:54.559Z,90.00
2018-12-17T06:57:18.925Z,89.60
2018-12-17T06:59:47.173Z,89.60
2018-12-17T07:02:17.990Z,89.60
2018-12-17T07:04:47.460Z,89.70
2018-12-17T07:07:15.686Z,89.60
2018-12-17T07:09:43.962Z,89.50
2018-12-17T07:12:13.090Z,89.40
2018-12-17T07:14:41.343Z,89.20
2018-12-17T07:17:09.612Z,88.70
2018-12-17T07:19:38.785Z,88.30
2018-12-17T07:22:07.011Z,88.40
2018-12-17T07:24:35.267Z,88.20
2018-12-17T07:27:03.569Z,88.00
2018-12-17T07:29:31.840Z,88.20
2018-12-17T07:32:00.079Z,88.30
2018-12-17T07:34:32.441Z,88.50
2018-12-17T07:37:01.218Z,88.60
2018-12-17T07:39:31.417Z,88.30
2018-12-17T07:42:00.201Z,88.30
2018-12-17T07:44:28.438Z,87.90
2018-12-17T07:46:56.711Z,87.70
2018-12-17T07:49:27.064Z,87.50
2018-12-17T07:51:55.307Z,88.00
2018-12-17T07:54:23.594Z,88.50
2018-12-17T07:56:52.332Z,88.60
2018-12-17T07:59:21.366Z,88.90
2018-12-17T08:01:51.704Z,89.50
2018-12-17T08:04:19.999Z,89.70
2018-12-17T08:06:48.256Z,89.60
2018-12-17T08:09:16.530Z,89.10
2018-12-17T08:11:45.248Z,89.40
2018-12-17T08:14:14.296Z,89.40
2018-12-17T08:16:42.581Z,90.00
2018-12-17T08:19:10.883Z,89.90
2018-12-17T08:21:39.951Z,90.10
2018-12-17T08:24:08.234Z,90.20
2018-12-17T08:26:37.037Z,90.30
2018-12-17T08:29:05.198Z,90.40
2018-12-17T08:31:33.492Z,90.70
2018-12-17T08:34:02.213Z,90.70
2018-12-17T08:36:32.487Z,90.90
2018-12-17T08:39:00.763Z,90.50
2018-12-17T08:41:30.337Z,90.30
2018-12-17T08:43:58.544Z,90.00
2018-12-17T08:46:26.813Z,90.50
2018-12-17T08:48:55.562Z,90.60
2018-12-17T08:51:23.804Z,91.00
2018-12-17T08:53:53.096Z,90.70
2018-12-17T08:56:21.601Z,90.60
2018-12-17T08:58:49.846Z,90.80
2018-12-17T09:01:18.110Z,90.40
2018-12-17T09:03:46.841Z,90.40
2018-12-17T09:06:15.123Z,90.70
2018-12-17T09:08:47.583Z,90.60
2018-12-17T09:11:15.731Z,90.70
2018-12-17T09:13:44.000Z,91.00
2018-12-17T09:16:12.684Z,90.70
2018-12-17T09:18:40.970Z,90.70
2018-12-17T09:21:09.241Z,90.70
2018-12-17T09:23:37.762Z,90.50
2018-12-17T09:26:05.881Z,90.50
2018-12-17T09:28:34.118Z,90.50
2018-12-17T09:31:03.629Z,90.10
2018-12-17T09:33:31.854Z,90.50
2018-12-17T09:36:00.135Z,89.90
2018-12-17T09:38:28.867Z,90.40
2018-12-17T09:40:57.148Z,90.00
2018-12-17T09:43:25.405Z,89.10
2018-12-17T09:45:53.875Z,90.60
2018-12-17T09:48:23.144Z,89.20
2018-12-17T09:50:51.431Z,89.10
2018-12-17T09:53:20.158Z,87.50
2018-12-17T09:55:48.260Z,88.60
2018-12-17T09:58:16.671Z,86.60
2018-12-17T10:00:44.983Z,87.10
2018-12-17T10:03:13.227Z,88.50
2018-12-17T10:05:41.499Z,86.60
2018-12-17T10:08:09.800Z,85.00
2018-12-17T10:10:38.058Z,82.80
2018-12-17T10:13:06.319Z,80.20
2018-12-17T10:15:35.070Z,78.00
2018-12-17T10:18:03.292Z,76.50
2018-12-17T10:20:31.574Z,75.70
2018-12-17T10:23:00.291Z,75.20
2018-12-17T10:25:28.544Z,75.50
2018-12-17T10:27:56.823Z,75.00
2018-12-17T10:30:32.160Z,76.80
2018-12-17T10:32:55.818Z,75.40
2018-12-17T10:35:23.926Z,76.50
2018-12-17T10:37:52.073Z,78.40
2018-12-17T10:40:20.158Z,80.30
2018-12-17T10:42:48.261Z,80.80
2018-12-17T10:45:16.386Z,81.60
2018-12-17T10:47:44.472Z,82.40
2018-12-17T10:50:12.565Z,82.80
2018-12-17T10:52:41.543Z,83.30
2018-12-17T10:55:09.632Z,83.00
2018-12-17T10:57:37.775Z,83.70
2018-12-17T11:00:10.370Z,83.30
2018-12-17T11:02:38.458Z,82.00
2018-12-17T11:05:08.454Z,82.40
2018-12-17T11:07:37.070Z,82.70
2018-12-17T11:10:06.448Z,83.00
2018-12-17T11:12:35.187Z,82.70
2018-12-17T11:15:06.133Z,82.70
2018-12-17T11:17:34.229Z,82.60
2018-12-17T11:20:02.310Z,82.60
2018-12-17T11:22:30.644Z,82.70
2018-12-17T11:24:58.750Z,82.90
2018-12-17T11:27:26.852Z,82.90
2018-12-17T11:29:55.218Z,83.30
2018-12-17T11:32:23.460Z,82.90
2018-12-17T11:34:51.732Z,82.80
2018-12-17T11:37:20.048Z,81.50
2018-12-17T11:39:48.285Z,81.70
2018-12-17T11:42:16.565Z,81.80
2018-12-17T11:44:45.723Z,82.20
2018-12-17T11:47:13.950Z,82.20
2018-12-17T11:49:42.227Z,80.80
2018-12-17T11:52:11.777Z,80.00
2018-12-17T11:54:40.092Z,78.40
2018-12-17T11:57:14.221Z,78.00
2018-12-17T11:59:44.329Z,76.40
2018-12-17T12:02:12.686Z,75.00
2018-12-17T12:04:42.062Z,73.30
2018-12-17T12:07:10.396Z,71.30
2018-12-17T12:09:38.731Z,70.50
2018-12-17T12:12:06.994Z,70.80
2018-12-17T12:14:35.625Z,69.90
2018-12-17T12:17:03.900Z,71.60
2018-12-17T12:19:32.231Z,72.20
2018-12-17T12:22:00.887Z,73.80
2018-12-17T12:24:29.140Z,71.60
2018-12-17T12:26:57.844Z,72.50
2018-12-17T12:29:26.133Z,72.10
2018-12-17T12:31:54.519Z,70.90
2018-12-17T12:34:22.695Z,70.50
2018-12-17T12:36:50.935Z,70.40
2018-12-17T12:39:19.025Z,71.10
2018-12-17T12:41:47.300Z,71.10
2018-12-17T12:44:15.368Z,71.90
2018-12-17T12:46:43.634Z,72.70
2018-12-17T12:49:12.372Z,73.30
2018-12-17T12:51:40.605Z,73.50
2018-12-17T12:54:08.936Z,72.30
2018-12-17T12:56:37.185Z,72.00
2018-12-17T12:59:05.441Z,72.20
2018-12-17T13:01:33.712Z,71.60
2018-12-17T13:04:02.031Z,72.50
2018-12-17T13:06:30.267Z,72.40
2018-12-17T13:08:58.536Z,72.20
2018-12-17T13:11:26.842Z,72.60
2018-12-17T13:13:55.088Z,72.70
2018-12-17T13:16:23.380Z,73.10
2018-12-17T13:18:51.704Z,73.30
2018-12-17T13:21:19.917Z,73.10
2018-12-17T13:23:48.014Z,72.90
2018-12-17T13:26:16.934Z,73.90
2018-12-17T13:28:45.167Z,73.80
2018-12-17T13:31:14.752Z,73.90
2018-12-17T13:33:43.386Z,74.10
2018-12-17T13:36:11.818Z,74.70
2018-12-17T13:38:39.919Z,74.40
2018-12-17T13:41:08.644Z,74.70
2018-12-17T13:43:36.866Z,75.30
2018-12-17T13:46:05.137Z,75.30
2018-12-17T13:48:33.887Z,75.70
2018-12-17T13:51:07.794Z,75.90
2018-12-17T13:53:37.079Z,76.10
2018-12-17T13:56:05.272Z,76.60
2018-12-17T13:58:33.487Z,76.90
2018-12-17T14:01:01.807Z,76.90
2018-12-17T14:03:30.040Z,76.60
2018-12-17T14:05:58.157Z,77.00
2018-12-17T14:08:26.281Z,77.50
2018-12-17T14:10:54.382Z,77.30
2018-12-17T14:13:22.728Z,76.90
2018-12-17T14:15:51.536Z,77.60
2018-12-17T14:18:26.535Z,78.40
2018-12-17T14:21:00.662Z,78.90
2018-12-17T14:23:28.962Z,79.50
2018-12-17T14:25:57.231Z,79.40
2018-12-17T14:28:25.552Z,79.50
2018-12-17T14:30:53.782Z,79.40
2018-12-17T14:33:22.056Z,79.50
2018-12-17T14:35:56.093Z,79.50
2018-12-17T14:38:24.362Z,79.80
2018-12-17T14:40:52.634Z,80.70
2018-12-17T14:43:20.952Z,81.20
2018-12-17T14:45:49.192Z,82.60
2018-12-17T14:48:17.464Z,83.70
2018-12-17T14:50:45.783Z,84.50
2018-12-17T14:53:14.019Z,85.30
2018-12-17T14:55:42.286Z,85.30
2018-12-17T14:58:10.596Z,85.90
2018-12-17T15:00:38.849Z,86.50
2018-12-17T15:03:07.122Z,86.80
2018-12-17T15:05:35.852Z,87.50
2018-12-17T15:08:04.099Z,87.50
2018-12-17T15:10:32.198Z,88.30
2018-12-17T15:13:00.337Z,88.60
2018-12-17T15:15:28.426Z,88.60
2018-12-17T15:17:56.773Z,89.10
2018-12-17T15:20:25.091Z,89.70
2018-12-17T15:22:53.335Z,89.60
2018-12-17T15:25:21.616Z,89.80
2018-12-17T15:27:49.774Z,90.00
2018-12-17T15:30:18.180Z,90.10
2018-12-17T15:32:46.439Z,90.10
2018-12-17T15:35:15.000Z,90.20
2018-12-17T15:37:44.217Z,90.50
2018-12-17T15:40:12.318Z,90.70
2018-12-17T15:42:40.906Z,90.80
2018-12-17T15:45:09.470Z,90.80
2018-12-17T15:47:37.737Z,90.90
2018-12-17T15:50:06.047Z,90.80
2018-12-17T15:52:34.305Z,91.10
2018-12-17T15:55:02.613Z,90.80
2018-12-17T15:57:30.878Z,90.60
2018-12-17T15:59:59.122Z,90.50
2018-12-17T16:02:27.395Z,90.60
2018-12-17T16:04:55.711Z,90.50
2018-12-17T16:07:23.956Z,90.70
2018-12-17T16:09:54.211Z,91.10
2018-12-17T16:12:22.674Z,91.00
2018-12-17T16:14:50.818Z,91.20
2018-12-17T16:17:19.096Z,91.40
2018-12-17T16:19:47.409Z,91.20
2018-12-17T16:22:15.649Z,91.30
2018-12-17T16:24:44.433Z,91.80
2018-12-17T16:27:19.066Z,92.00
2018-12-17T16:29:42.982Z,92.00
2018-12-17T16:32:11.218Z,92.00
2018-12-17T16:34:40.198Z,92.10
2018-12-17T16:37:08.694Z,92.00
2018-12-17T16:39:36.884Z,91.80
2018-12-17T16:42:05.192Z,91.70
2018-12-17T16:44:33.417Z,91.80
2018-12-17T16:47:01.710Z,92.20
2018-12-17T16:49:30.436Z,92.40
2018-12-17T16:51:59.479Z,92.50
2018-12-17T16:54:27.754Z,92.50
2018-12-17T16:56:56.080Z,92.20
2018-12-17T16:59:24.305Z,92.40
2018-12-17T17:01:52.590Z,92.50
2018-12-17T17:04:21.325Z,92.60
2018-12-17T17:06:49.580Z,92.70
2018-12-17T17:09:17.825Z,92.70
2018-12-17T17:11:46.133Z,92.60
2018-12-17T17:14:14.380Z,92.90
2018-12-17T17:16:42.801Z,93.10
2018-12-17T17:19:11.391Z,92.60
2018-12-17T17:21:39.628Z,92.80
2018-12-17T17:24:07.885Z,92.80
2018-12-17T17:26:36.209Z,92.80
2018-12-17T17:29:04.464Z,92.80
2018-12-17T17:31:32.731Z,92.90
2018-12-17T17:34:01.034Z,92.80
2018-12-17T17:36:29.282Z,92.70
2018-12-17T17:38:57.548Z,92.80
2018-12-17T17:41:25.878Z,92.70
2018-12-17T17:43:54.100Z,92.60
2018-12-17T17:46:22.373Z,92.40
2018-12-17T17:48:50.689Z,92.10
2018-12-17T17:51:19.771Z,91.90
2018-12-17T17:53:48.083Z,92.20
2018-12-17T17:56:17.601Z,92.20
2018-12-17T17:58:45.900Z,92.40
2018-12-17T18:01:14.518Z,92.50
2018-12-17T18:03:42.658Z,92.60
2018-12-17T18:06:16.302Z,92.80
2018-12-17T18:08:41.380Z,93.10
2018-12-17T18:11:09.525Z,93.20
2018-12-17T18:13:37.951Z,93.20
2018-12-17T18:16:06.218Z,93.30
2018-12-17T18:18:34.938Z,93.40
2018-12-17T18:21:03.193Z,93.50
2018-12-17T18:23:31.446Z,93.30
2018-12-17T18:25:59.754Z,93.20
2018-12-17T18:28:28.052Z,93.30
2018-12-17T18:30:56.278Z,93.40
2018-12-17T18:33:24.624Z,93.50
2018-12-17T18:35:52.824Z,93.50
2018-12-17T18:38:21.099Z,93.60
2018-12-17T18:40:49.252Z,93.90
2018-12-17T18:43:17.666Z,93.60
2018-12-17T18:45:46.770Z,93.60
2018-12-17T18:48:15.068Z,93.70
2018-12-17T18:50:43.310Z,93.90
2018-12-17T18:53:11.582Z,93.70
2018-12-17T18:55:39.897Z,93.80
2018-12-17T18:58:08.953Z,93.70
2018-12-17T19:00:37.253Z,93.70
2018-12-17T19:03:05.909Z,94.00
2018-12-17T19:05:34.200Z,94.00
2018-12-17T19:08:02.468Z,94.00
2018-12-17T19:10:32.774Z,93.80
2018-12-17T19:13:01.075Z,93.80
2018-12-17T19:15:30.273Z,93.90
2018-12-17T19:17:58.488Z,93.80
2018-12-17T19:20:26.721Z,93.90
2018-12-17T19:22:55.824Z,94.10
2018-12-17T19:25:24.142Z,94.20
2018-12-17T19:27:52.390Z,94.50
2018-12-17T19:30:20.648Z,94.60
2018-12-17T19:32:48.980Z,94.60
2018-12-17T19:35:17.238Z,94.50
2018-12-17T19:37:45.484Z,94.30
2018-12-17T19:40:13.793Z,94.20
2018-12-17T19:42:42.027Z,94.20
2018-12-17T19:45:10.316Z,94.40
2018-12-17T19:47:38.818Z,94.20
2018-12-17T19:50:12.701Z,94.20
2018-12-17T19:52:40.918Z,94.20
2018-12-17T19:55:09.151Z,94.00
2018-12-17T19:57:37.412Z,93.90
2018-12-17T20:00:08.145Z,94.00
2018-12-17T20:02:36.439Z,94.00
2018-12-17T20:05:04.801Z,93.90
2018-12-17T20:07:34.254Z,94.00
2018-12-17T20:10:02.496Z,94.20
2018-12-17T20:12:30.775Z,94.40
2018-12-17T20:14:59.091Z,94.60
2018-12-17T20:17:27.330Z,94.90
2018-12-17T20:19:55.599Z,95.10
2018-12-17T20:22:23.904Z,94.90
2018-12-17T20:24:52.149Z,94.80
2018-12-17T20:27:23.707Z,94.60
2018-12-17T20:29:52.016Z,94.40
2018-12-17T20:32:20.258Z,94.10
2018-12-17T20:34:48.533Z,94.10
2018-12-17T20:37:17.098Z,94.30
2018-12-17T20:39:45.501Z,94.10
2018-12-17T20:42:13.772Z,94.00
2018-12-17T20:44:42.324Z,94.30
2018-12-17T20:47:10.762Z,94.50
2018-12-17T20:49:39.014Z,94.50
2018-12-17T20:52:07.329Z,94.20
2018-12-17T20:54:36.410Z,94.20
2018-12-17T20:57:04.662Z,94.10
2018-12-17T20:59:32.990Z,94.00
2018-12-17T21:02:04.905Z,93.80
2018-12-17T21:04:33.660Z,93.70
2018-12-17T21:07:01.863Z,93.50
2018-12-17T21:09:30.143Z,93.30
2018-12-17T21:11:58.459Z,93.30
2018-12-17T21:14:26.704Z,93.40
2018-12-17T21:16:55.784Z,93.50
2018-12-17T21:19:24.113Z,93.70
2018-12-17T21:21:52.350Z,93.80
2018-12-17T21:24:21.065Z,94.10
2018-12-17T21:26:49.344Z,94.00
2018-12-17T21:29:17.589Z,94.00
2018-12-17T21:31:45.857Z,93.70
2018-12-17T21:34:15.025Z,93.80
2018-12-17T21:36:43.226Z,93.70
2018-12-17T21:39:11.519Z,93.90
2018-12-17T21:41:39.674Z,94.00
2018-12-17T21:44:08.075Z,94.00
2018-12-17T21:46:36.339Z,93.90
2018-12-17T21:49:05.868Z,93.80
2018-12-17T21:51:34.114Z,93.80
2018-12-17T21:54:02.409Z,93.90
2018-12-17T21:56:31.105Z,93.90
2018-12-17T21:59:03.047Z,93.90
2018-12-17T22:01:32.182Z,94.10
2018-12-17T22:04:00.435Z,94.00
2018-12-17T22:06:28.699Z,94.00
2018-12-17T22:08:57.448Z,93.80
2018-12-17T22:11:25.652Z,94.00
2018-12-17T22:13:54.762Z,94.20
2018-12-17T22:16:23.061Z,94.60
2018-12-17T22:18:51.333Z,94.80
2018-12-17T22:21:21.634Z,94.90
2018-12-17T22:23:49.929Z,94.60
2018-12-17T22:26:18.183Z,94.50
2018-12-17T22:28:46.513Z,94.30
2018-12-17T22:31:14.819Z,94.20
2018-12-17T22:33:43.031Z,94.20
2018-12-17T22:36:13.341Z,94.20
2018-12-17T22:38:41.661Z,94.10
2018-12-17T22:41:11.929Z,94.00
2018-12-17T22:43:41.088Z,94.00
2018-12-17T22:46:09.327Z,94.20
2018-12-17T22:48:38.405Z,94.60
2018-12-17T22:51:10.029Z,94.40
2018-12-17T22:53:38.236Z,94.00
2018-12-17T22:56:11.477Z,93.90
2018-12-17T22:58:42.461Z,93.90
2018-12-17T23:01:10.030Z,93.70
2018-12-17T23:03:39.160Z,93.70
2018-12-17T23:06:08.216Z,93.50
2018-12-17T23:08:40.009Z,93.50
2018-12-17T23:11:22.059Z,93.30
2018-12-17T23:14:03.824Z,93.20
2018-12-17T23:16:43.894Z,93.40
2018-12-17T23:19:11.822Z,93.50
2018-12-17T23:21:40.070Z,93.40
2018-12-17T23:24:08.347Z,93.50
2018-12-17T23:26:40.753Z,93.20
2018-12-17T23:29:09.813Z,93.00
2018-12-17T23:31:38.135Z,93.30
2018-12-17T23:34:08.466Z,93.50
2018-12-17T23:36:36.702Z,93.50
2018-12-17T23:39:04.965Z,93.70
2018-12-17T23:41:35.590Z,93.70
2018-12-17T23:44:03.985Z,93.60
2018-12-17T23:46:32.262Z,93.30
2018-12-17T23:49:00.780Z,93.10
2018-12-17T23:51:32.507Z,93.00
2018-12-17T23:54:00.807Z,92.80
2018-12-17T23:56:30.315Z,92.80
2018-12-17T23:58:58.546Z,93.30
